• Join FlightAware (Why Join?)
  • Login
  • US Flag 
08:55PM EST


 

Airport Tracker/Info


-or-


 

Live Flight TrackerFlight Track Log ✈ UPS1337 ✈ 28-May-2014 ✈ KPIE - KSDF

Flight Track Log - Related Links

Times and Time Zones

All times are in EDT time to prevent confusion due to time zone crossing. See the UPS1337 flight status page for this flight to view local times or setup timezone preferences in your user account.

Time Position Orientation Groundspeed Altitude Reporting Facility
EDT Latitude Longitude Course Direction KTS MPH feet Rate Location/Type
09:56PM 27.9333 -82.7000 24° Northeast 174 200 900  Level Tampa TRACON
09:57PM 28.0000 -82.6667 24° Northeast 263 303 3,600 2,520 Climbing Tampa TRACON
09:58PM 28.0667 -82.7000 336° Northwest 283 326 6,500 2,820 Climbing Tampa TRACON
10:00PM 28.1933 -82.7272 349° North 302 348 11,200 2,160 Climbing Miami Center
10:01PM 28.2947 -82.7389 354° North 361 415 12,600 2,040 Climbing Miami Center
10:02PM 28.4092 -82.7464 357° North 400 460 15,400 2,520 Climbing Miami Center
10:03PM 28.5253 -82.7564 356° North 412 474 17,800 2,400 Climbing Miami Center
10:04PM 28.6603 -82.7631 358° North 424 488 20,400 2,280 Climbing Miami Center
10:05PM 28.7814 -82.8014 344° North 445 512 22,500 1,860 Climbing Miami Center
10:06PM 28.9039 -82.8392 345° North 453 521 24,200 1,680 Climbing Miami Center
10:07PM 29.0308 -82.8797 344° North 471 542 25,900 1,620 Climbing Miami Center
10:08PM 29.1589 -82.9228 344° North 475 547 27,600 1,740 Climbing Miami Center
10:09PM 29.2875 -82.9636 345° North 476 548 29,600 1,920 Climbing Miami Center
10:10PM 29.4142 -83.0044 344° North 475 547 31,500 1,200 Climbing Miami Center
10:11PM 29.5383 -83.0450 344° North 466 536 32,000 240 Climbing Miami Center
10:12PM 29.6631 -83.0869 344° North 463 533 32,000  Level Miami Center
10:13PM 29.8637 -83.1518 344° North 465 535 32,000  Level FlightAware ADS-B (KTLH)
10:14PM 29.9183 -83.1700 344° North 462 532 32,000  Level Miami Center
10:15PM 30.0431 -83.2103 344° North 462 532 32,000  Level Miami Center
10:20PM 30.7441 -83.4053 346° North 460 529 32,000  Level FlightAware ADS-B (KTLH)
10:21PM 30.6522 -83.3794 346° North 459 528 32,000  Level FlightAware ADS-B (KTLH)
10:22PM 30.9616 -83.4667 346° North 459 528 32,000  Level FlightAware ADS-B (KTLH)
10:23PM 31.0465 -83.4908 346° North 459 528 32,000  Level FlightAware ADS-B (KTLH)
10:24PM 31.1767 -83.5278 346° North 456 525 32,000  Level FlightAware ADS-B (KTLH)
10:25PM 31.2364 -83.5458 346° North 460 529 32,000  Level Atlanta Center
10:26PM 31.3597 -83.5817 346° North 466 536 32,000  Level Atlanta Center
10:27PM 31.4828 -83.6175 346° North 460 529 32,000  Level Atlanta Center
10:28PM 31.6042 -83.6486 348° North 454 522 32,000  Level Atlanta Center
10:29PM 31.7419 -83.6897 346° North 454 522 32,000  Level Atlanta Center
10:30PM 31.8569 -83.7233 346° North 464 534 32,000  Level Atlanta Center
10:31PM 31.9781 -83.7597 346° North 464 534 32,000  Level Atlanta Center
10:32PM 32.1033 -83.7936 347° North 453 521 32,000  Level Atlanta Center
10:33PM 32.2244 -83.8300 346° North 453 521 32,000  Level Atlanta Center
10:34PM 32.3475 -83.8667 346° North 453 521 32,000  Level Atlanta Center
10:35PM 32.4708 -83.9033 346° North 453 521 32,000  Level Atlanta Center
10:36PM 32.5961 -83.9378 347° North 453 521 32,000  Level Atlanta Center
10:37PM 32.7172 -83.9747 346° North 453 521 32,000  Level Atlanta Center
10:38PM 32.8403 -84.0117 346° North 453 521 32,000  Level Atlanta Center
10:39PM 32.9636 -84.0511 345° North 453 521 32,000  Level Atlanta Center
10:40PM 33.0867 -84.0833 348° North 453 521 32,000  Level Atlanta Center
10:41PM 33.2078 -84.1208 345° North 453 521 32,000  Level Atlanta Center
10:42PM 33.3328 -84.1581 346° North 453 521 32,000  Level Atlanta Center
10:43PM 34.0382 -84.3681 346° North 465 535 32,000  Level FlightAware ADS-B (KDZJ)
10:44PM 34.1221 -84.3935 346° North 461 531 32,000  Level FlightAware ADS-B (KDZJ)
10:44PM 34.2059 -84.4190 346° North 463 533 32,000  Level FlightAware ADS-B (KDZJ)
10:45PM 34.2882 -84.4442 346° North 463 533 32,000  Level FlightAware ADS-B (KDZJ)
10:46PM 34.3727 -84.4701 346° North 462 532 32,000  Level FlightAware ADS-B (KDZJ)
10:46PM 34.4551 -84.4953 346° North 463 533 32,000  Level FlightAware ADS-B (KDZJ)
10:47PM 34.5393 -84.5210 346° North 465 535 32,000  Level FlightAware ADS-B (KDZJ)
10:48PM 34.6236 -84.5470 346° North 466 536 32,000  Level FlightAware ADS-B (KDZJ)
10:48PM 34.7052 -84.5721 346° North 467 537 32,000  Level FlightAware ADS-B (KDZJ)
10:49PM 34.7916 -84.5989 346° North 468 539 32,000  Level FlightAware ADS-B (KDZJ)
10:50PM 34.8722 -84.6239 346° North 468 539 32,000  Level FlightAware ADS-B (KDZJ)
10:50PM 34.9596 -84.6510 346° North 467 537 32,000  Level FlightAware ADS-B (KDZJ)
10:51PM 35.0426 -84.6768 346° North 465 535 32,000  Level FlightAware ADS-B (KDZJ)
10:52PM 35.1175 -84.7001 346° North 464 534 32,000  Level FlightAware ADS-B (KDZJ)
10:56PM 35.1897 -84.7226 346° North 464 534 32,000  Level FlightAware ADS-B (KMDQ)
10:58PM 35.3595 -84.7757 346° North 465 535 32,000  Level FlightAware ADS-B (KMDQ)
10:58PM 35.4404 -84.8012 346° North 464 534 32,000  Level FlightAware ADS-B (KMDQ)
10:59PM 35.5701 -84.8420 346° North 464 534 32,000  Level FlightAware ADS-B (KMDQ)
11:00PM 35.6931 -84.8811 346° North 464 534 32,000 -480 Level FlightAware ADS-B (KMDQ)
11:01PM 35.8203 -84.9213 346° North 466 536 31,100 -1,020 Descending FlightAware ADS-B (KMDQ)
11:02PM 35.8926 -84.9444 346° North 465 535 30,400 -900 Descending FlightAware ADS-B (KMDQ)
11:03PM 35.9667 -84.9680 346° North 459 528 30,000 -300 Descending FlightAware ADS-B (KMDQ)
11:03PM 36.0506 -84.9947 345° North 455 524 30,000  Level FlightAware ADS-B (KMDQ)
11:04PM 36.1486 -85.0315 340° North 456 525 30,000  Level FlightAware ADS-B (KMDQ)
11:05PM 36.2817 -85.0893 341° North 458 527 30,000 -240 Level FlightAware ADS-B (KMDQ)
11:06PM 36.3574 -85.1217 341° North 460 529 29,600 -840 Descending FlightAware ADS-B (KMDQ)
11:07PM 36.5400 -85.1999 341° North 448 516 28,200 -1,080 Descending FlightAware ADS-B
11:08PM 36.6619 -85.2522 341° North 437 503 27,100 -1,080 Descending FlightAware ADS-B
11:09PM 36.7850 -85.3052 341° North 436 502 26,000 -1,260 Descending FlightAware ADS-B
11:11PM 36.9131 -85.3607 341° North 441 507 24,400 -1,620 Descending FlightAware ADS-B
11:12PM 37.0754 -85.4317 341° North 428 493 22,000 -2,280 Descending FlightAware ADS-B
11:13PM 37.1871 -85.4804 341° North 418 481 19,000 -3,240 Descending FlightAware ADS-B
11:14PM 37.2965 -85.5280 341° North 396 456 15,500 -3,480 Descending FlightAware ADS-B
11:15PM 37.3976 -85.5721 341° North 376 433 12,000 -2,460 Descending FlightAware ADS-B
11:16PM 37.4859 -85.6080 348° North 309 356 10,600 -1,680 Descending FlightAware ADS-B
11:17PM 37.5669 -85.6304 348° North 287 330 8,700 -2,040 Descending FlightAware ADS-B
11:18PM 37.6446 -85.6103 18° North 291 335 6,600 -1,620 Descending FlightAware ADS-B
11:19PM 37.7195 -85.5987 351° North 256 295 5,500 -900 Descending FlightAware ADS-B
11:20PM 37.7879 -85.6147 347° North 243 280 4,900 -300 Descending FlightAware ADS-B
11:21PM 37.8514 -85.6382 341° North 233 268 5,000  Climbing FlightAware ADS-B
11:22PM 37.9134 -85.6615 351° North 233 268 4,900 -540 Descending FlightAware ADS-B
11:23PM 37.9719 -85.6764 343° North 197 227 4,000 -900 Descending FlightAware ADS-B
11:24PM 38.0212 -85.6950 347° North 185 213 3,100 -960 Descending FlightAware ADS-B
11:25PM 38.0720 -85.7109 345° North 150 173 2,100 -840 Descending FlightAware ADS-B
11:26PM 38.1051 -85.7219 346° North 148 170 1,400 -780 Descending FlightAware ADS-B
11:26PM 38.1304 -85.7302 345° North 148 170 1,000 -840 Descending FlightAware ADS-B
11:34PM 38.1667 -85.7333 293° West  Level FlightAware Approximate
11:35PM 38.1741 -85.7365 293° West  Level Estimated